createdAt,value
2023-01-31T00:01:40.107Z,12.13
2023-01-31T00:04:09.517Z,14.45
2023-01-31T00:06:39.571Z,13.35
2023-01-31T00:09:08.289Z,15.23
2023-01-31T00:11:35.350Z,11.95
2023-01-31T00:14:04.483Z,14.38
2023-01-31T00:16:31.237Z,18.65
2023-01-31T00:18:57.773Z,17.20
2023-01-31T00:21:27.907Z,13.05
2023-01-31T00:23:55.824Z,15.98
2023-01-31T00:26:30.974Z,11.45
2023-01-31T00:31:27.204Z,17.23
2023-01-31T00:33:55.291Z,19.23
2023-01-31T00:36:31.408Z,13.30
2023-01-31T00:39:00.285Z,19.50
2023-01-31T00:41:29.112Z,16.23
2023-01-31T00:43:56.230Z,16.83
2023-01-31T00:46:23.843Z,12.90
2023-01-31T00:48:51.237Z,12.25
2023-01-31T00:51:19.076Z,16.80
2023-01-31T00:53:45.819Z,16.65
2023-01-31T00:56:15.489Z,18.40
2023-01-31T00:58:42.140Z,16.40
2023-01-31T01:01:15.320Z,19.50
2023-01-31T01:03:43.625Z,15.95
2023-01-31T01:06:11.548Z,10.73
2023-01-31T01:08:39.990Z,14.02
2023-01-31T01:11:08.734Z,14.63
2023-01-31T01:13:36.518Z,20.90
2023-01-31T01:16:06.123Z,15.43
2023-01-31T01:18:35.215Z,18.38
2023-01-31T01:21:09.657Z,14.32
2023-01-31T01:23:37.874Z,17.10
2023-01-31T01:26:05.257Z,12.80
2023-01-31T01:28:35.270Z,16.90
2023-01-31T01:31:09.326Z,11.30
2023-01-31T01:33:36.609Z,12.15
2023-01-31T01:36:05.783Z,14.02
2023-01-31T01:38:36.291Z,13.10
2023-01-31T01:41:03.969Z,14.40
2023-01-31T01:43:54.021Z,15.18
2023-01-31T01:46:33.377Z,17.52
2023-01-31T01:49:20.278Z,16.25
2023-01-31T01:51:49.664Z,14.70
2023-01-31T01:54:22.622Z,15.55
2023-01-31T01:56:54.748Z,15.88
2023-01-31T01:59:27.823Z,14.40
2023-01-31T02:01:56.652Z,20.48
2023-01-31T02:04:28.180Z,15.65
2023-01-31T02:06:55.311Z,17.10
2023-01-31T02:09:40.984Z,20.80
2023-01-31T02:12:09.403Z,15.73
2023-01-31T02:14:36.707Z,12.30
2023-01-31T02:17:03.483Z,16.90
2023-01-31T02:19:45.600Z,12.73
2023-01-31T02:22:28.552Z,14.35
2023-01-31T02:25:23.756Z,14.40
2023-01-31T02:28:26.923Z,14.57
2023-01-31T02:31:24.075Z,11.23
2023-01-31T02:34:20.331Z,17.30
2023-01-31T02:37:12.863Z,17.13
2023-01-31T02:39:52.832Z,13.45
2023-01-31T02:42:48.932Z,14.60
2023-01-31T02:45:22.000Z,21.05
2023-01-31T02:48:14.148Z,12.75
2023-01-31T02:50:54.167Z,18.48
2023-01-31T02:53:37.157Z,13.30
2023-01-31T02:56:23.777Z,16.02
2023-01-31T02:58:55.007Z,13.43
2023-01-31T03:01:27.949Z,17.77
2023-01-31T03:03:59.591Z,16.92
2023-01-31T03:06:27.040Z,18.83
2023-01-31T03:09:02.646Z,14.57
2023-01-31T03:11:45.990Z,19.02
2023-01-31T03:14:27.150Z,21.38
2023-01-31T03:17:21.844Z,15.27
2023-01-31T03:20:01.066Z,18.95
2023-01-31T03:22:32.801Z,18.60
2023-01-31T03:25:00.430Z,16.95
2023-01-31T03:27:28.325Z,19.17
2023-01-31T03:30:05.492Z,13.90
2023-01-31T03:32:40.394Z,17.52
2023-01-31T03:35:07.454Z,16.90
2023-01-31T03:37:47.969Z,19.60
2023-01-31T03:40:24.027Z,18.67
2023-01-31T03:42:57.499Z,18.63
2023-01-31T03:45:34.614Z,19.83
2023-01-31T03:48:03.946Z,16.02
2023-01-31T03:50:43.055Z,20.73
2023-01-31T03:53:15.022Z,18.98
2023-01-31T03:55:54.102Z,14.35
2023-01-31T03:58:26.302Z,12.70
2023-01-31T04:00:54.811Z,16.17
2023-01-31T04:03:29.824Z,19.50
2023-01-31T04:05:57.011Z,20.58
2023-01-31T04:08:23.666Z,14.23
2023-01-31T04:10:50.821Z,16.52
2023-01-31T04:13:17.462Z,14.45
2023-01-31T04:15:44.035Z,20.50
2023-01-31T04:18:10.978Z,18.23
2023-01-31T04:20:37.540Z,17.85
2023-01-31T04:23:04.539Z,17.15
2023-01-31T04:25:32.844Z,18.95
2023-01-31T04:28:00.168Z,15.55
2023-01-31T04:30:26.745Z,16.92
2023-01-31T04:32:53.322Z,17.65
2023-01-31T04:35:20.624Z,17.58
2023-01-31T04:37:47.345Z,18.58
2023-01-31T04:40:14.333Z,16.42
2023-01-31T04:42:41.052Z,14.75
2023-01-31T04:45:08.272Z,19.25
2023-01-31T04:47:34.850Z,17.75
2023-01-31T04:50:01.505Z,13.82
2023-01-31T04:52:28.190Z,17.80
2023-01-31T04:54:54.831Z,14.25
2023-01-31T04:57:21.656Z,14.40
2023-01-31T04:59:50.165Z,17.50
2023-01-31T05:02:17.686Z,15.90
2023-01-31T05:04:44.334Z,12.63
2023-01-31T05:07:10.889Z,16.60
2023-01-31T05:09:37.526Z,15.68
2023-01-31T05:12:05.235Z,15.10
2023-01-31T05:14:32.652Z,17.20
2023-01-31T05:16:59.503Z,20.70
2023-01-31T05:19:26.150Z,15.68
2023-01-31T05:21:58.208Z,16.83
2023-01-31T05:24:27.476Z,14.10
2023-01-31T05:26:58.286Z,12.32
2023-01-31T05:29:29.827Z,15.63
2023-01-31T05:31:58.756Z,19.27
2023-01-31T05:34:26.663Z,12.50
2023-01-31T05:36:53.475Z,14.80
2023-01-31T05:39:20.154Z,13.27
2023-01-31T05:41:46.706Z,20.48
2023-01-31T05:44:14.233Z,13.57
2023-01-31T05:46:40.949Z,17.83
2023-01-31T05:49:07.761Z,12.48
2023-01-31T05:51:34.380Z,16.55
2023-01-31T05:54:00.975Z,14.85
2023-01-31T05:56:27.779Z,16.77
2023-01-31T05:58:54.391Z,11.57
2023-01-31T06:01:23.115Z,16.88
2023-01-31T06:03:49.978Z,13.57
2023-01-31T06:06:38.513Z,16.27
2023-01-31T06:09:05.065Z,15.45
2023-01-31T06:11:31.976Z,19.35
2023-01-31T06:13:59.555Z,11.82
2023-01-31T06:16:26.218Z,15.02
2023-01-31T06:18:52.868Z,13.57
2023-01-31T06:21:19.551Z,15.98
2023-01-31T06:23:47.736Z,18.48
2023-01-31T06:26:14.414Z,16.02
2023-01-31T06:28:41.059Z,14.82
2023-01-31T06:31:12.011Z,13.85
2023-01-31T06:33:47.036Z,19.50
2023-01-31T06:36:17.426Z,19.10
2023-01-31T06:38:48.131Z,15.73
2023-01-31T06:41:14.823Z,16.92
2023-01-31T06:43:41.371Z,14.95
2023-01-31T06:46:08.042Z,14.93
2023-01-31T06:48:34.688Z,21.58
2023-01-31T06:51:01.644Z,18.70
2023-01-31T06:53:28.223Z,14.98
2023-01-31T06:55:55.143Z,17.60
2023-01-31T06:58:21.868Z,15.77
2023-01-31T07:00:48.387Z,18.77
2023-01-31T07:03:15.084Z,15.20
2023-01-31T07:05:41.769Z,14.18
2023-01-31T07:08:08.369Z,19.13
2023-01-31T07:10:35.037Z,17.25
2023-01-31T07:13:01.921Z,17.80
2023-01-31T07:15:30.154Z,13.57
2023-01-31T07:18:00.220Z,21.10
2023-01-31T07:20:26.912Z,13.52
2023-01-31T07:22:57.196Z,18.05
2023-01-31T07:25:24.620Z,17.45
2023-01-31T07:27:51.586Z,16.38
2023-01-31T07:30:18.781Z,13.15
2023-01-31T07:32:45.871Z,11.02
2023-01-31T07:35:12.545Z,14.40
2023-01-31T07:37:39.619Z,15.82
2023-01-31T07:40:07.148Z,22.50
2023-01-31T07:42:33.750Z,14.70
2023-01-31T07:45:10.074Z,19.55
2023-01-31T07:47:39.897Z,17.77
2023-01-31T07:50:06.756Z,20.95
2023-01-31T07:52:33.815Z,14.32
2023-01-31T07:55:00.391Z,18.42
2023-01-31T07:57:26.932Z,14.18
2023-01-31T07:59:53.508Z,15.63
2023-01-31T08:02:38.690Z,14.18
2023-01-31T08:05:05.841Z,15.52
2023-01-31T08:07:32.387Z,13.65
2023-01-31T08:09:58.942Z,11.70
2023-01-31T08:12:25.471Z,13.07
2023-01-31T08:14:52.028Z,14.88
2023-01-31T08:17:18.646Z,16.50
2023-01-31T08:19:45.251Z,17.70
2023-01-31T08:22:11.854Z,13.02
2023-01-31T08:24:38.412Z,16.00
2023-01-31T08:27:04.932Z,17.98
2023-01-31T08:29:31.711Z,16.90
2023-01-31T08:31:58.407Z,20.33
2023-01-31T08:34:25.171Z,18.52
2023-01-31T08:36:51.819Z,24.20
2023-01-31T08:39:18.389Z,22.25
2023-01-31T08:41:44.972Z,20.55
2023-01-31T08:44:12.582Z,24.77
2023-01-31T08:46:39.239Z,22.25
2023-01-31T08:49:07.033Z,23.65
2023-01-31T08:51:33.669Z,23.60
2023-01-31T08:54:00.287Z,26.05
2023-01-31T08:56:27.775Z,28.33
2023-01-31T08:58:54.936Z,30.23
2023-01-31T09:01:22.806Z,29.52
2023-01-31T09:03:50.554Z,30.63
2023-01-31T09:06:20.883Z,29.80
2023-01-31T09:08:47.870Z,30.67
2023-01-31T09:11:19.460Z,32.67
2023-01-31T09:13:47.866Z,26.33
2023-01-31T09:16:14.954Z,24.23
2023-01-31T09:18:42.311Z,23.80
2023-01-31T09:21:14.718Z,22.75
2023-01-31T09:23:42.684Z,21.88
2023-01-31T09:26:11.212Z,22.65
2023-01-31T09:28:38.060Z,22.88
2023-01-31T09:31:10.883Z,22.58
2023-01-31T09:33:37.679Z,23.95
2023-01-31T09:36:09.322Z,21.58
2023-01-31T09:38:36.520Z,22.83
2023-01-31T09:41:05.923Z,21.90
2023-01-31T09:43:41.486Z,22.25
2023-01-31T09:46:16.643Z,23.48
2023-01-31T09:51:13.643Z,24.77
2023-01-31T09:53:41.824Z,20.42
2023-01-31T09:56:24.489Z,21.85
2023-01-31T09:58:59.058Z,19.52
2023-01-31T10:01:58.069Z,24.00
2023-01-31T10:05:10.081Z,21.90
2023-01-31T10:08:06.669Z,23.55
2023-01-31T10:10:42.899Z,19.48
2023-01-31T10:13:46.460Z,21.02
2023-01-31T10:16:29.186Z,22.40
2023-01-31T10:19:02.434Z,23.30
2023-01-31T10:21:34.714Z,21.27
2023-01-31T10:24:09.982Z,20.38
2023-01-31T10:26:40.487Z,20.45
2023-01-31T10:29:17.438Z,26.25
2023-01-31T10:32:01.258Z,20.45
2023-01-31T10:34:40.843Z,20.73
2023-01-31T10:37:16.512Z,18.65
2023-01-31T10:39:52.438Z,21.10
2023-01-31T10:42:39.504Z,20.30
2023-01-31T10:45:09.062Z,19.00
2023-01-31T10:47:39.850Z,21.08
2023-01-31T10:50:16.976Z,22.55
2023-01-31T10:53:17.314Z,20.17
2023-01-31T10:56:11.624Z,19.35
2023-01-31T10:58:39.078Z,19.77
2023-01-31T11:01:12.022Z,19.60
2023-01-31T11:03:38.933Z,19.17
2023-01-31T11:06:06.507Z,22.88
2023-01-31T11:08:43.495Z,21.10
2023-01-31T11:11:17.044Z,23.08
2023-01-31T11:13:55.785Z,20.20
2023-01-31T11:16:23.550Z,18.52
2023-01-31T11:18:51.411Z,22.05
2023-01-31T11:21:30.872Z,19.23
2023-01-31T11:24:07.927Z,21.33
2023-01-31T11:26:38.335Z,20.15
2023-01-31T11:29:17.629Z,18.05
2023-01-31T11:31:47.325Z,16.48
2023-01-31T11:34:25.458Z,18.85
2023-01-31T11:36:53.041Z,20.27
2023-01-31T11:39:29.019Z,19.48
2023-01-31T11:41:55.974Z,17.30
2023-01-31T11:44:23.763Z,20.00
2023-01-31T11:46:59.855Z,16.02
2023-01-31T11:49:36.435Z,13.52
2023-01-31T11:52:14.004Z,18.90
2023-01-31T11:54:45.976Z,19.67
2023-01-31T11:57:21.356Z,16.50
2023-01-31T11:59:51.729Z,17.73
2023-01-31T12:02:39.837Z,15.05
2023-01-31T12:05:16.089Z,14.35
2023-01-31T12:07:44.617Z,12.60
2023-01-31T12:10:32.240Z,10.90
2023-01-31T12:13:17.931Z,13.20
2023-01-31T12:16:00.394Z,14.15
2023-01-31T12:18:46.995Z,16.23
2023-01-31T12:21:32.100Z,19.30
2023-01-31T12:24:30.241Z,12.65
2023-01-31T12:27:18.262Z,15.32
2023-01-31T12:29:55.578Z,16.38
2023-01-31T12:32:34.165Z,13.00
2023-01-31T12:35:17.019Z,15.07
2023-01-31T12:37:58.018Z,14.93
2023-01-31T12:40:39.004Z,13.40
2023-01-31T12:43:34.718Z,15.75
2023-01-31T12:46:23.113Z,17.45
2023-01-31T12:49:14.150Z,16.05
2023-01-31T12:52:02.360Z,15.48
2023-01-31T12:54:46.694Z,15.55
2023-01-31T12:57:22.120Z,18.73
2023-01-31T13:00:12.285Z,14.90
2023-01-31T13:02:45.681Z,16.23
2023-01-31T13:05:28.221Z,16.88
2023-01-31T13:08:03.679Z,16.73
2023-01-31T13:13:04.820Z,18.42
2023-01-31T13:15:44.615Z,18.77
2023-01-31T13:18:13.047Z,16.95
2023-01-31T13:20:58.943Z,17.52
2023-01-31T13:23:31.528Z,17.52
2023-01-31T13:26:28.212Z,17.52
2023-01-31T13:29:04.664Z,20.02
2023-01-31T13:31:37.767Z,24.20
2023-01-31T13:34:17.229Z,18.15
2023-01-31T13:36:48.539Z,18.42
2023-01-31T13:39:25.857Z,18.92
2023-01-31T13:41:52.453Z,20.70
2023-01-31T13:44:20.790Z,16.90
2023-01-31T13:46:52.935Z,16.33
2023-01-31T13:49:29.084Z,20.00
2023-01-31T13:51:58.884Z,21.33
2023-01-31T13:54:51.739Z,23.70
2023-01-31T13:57:29.380Z,19.60
2023-01-31T14:00:09.601Z,18.73
2023-01-31T14:02:36.463Z,17.73
2023-01-31T14:05:30.037Z,20.08
2023-01-31T14:08:35.617Z,20.33
2023-01-31T14:11:25.165Z,17.73
2023-01-31T14:14:09.810Z,17.48
2023-01-31T14:16:38.581Z,17.83
2023-01-31T14:19:26.087Z,19.40
2023-01-31T14:22:20.971Z,22.42
2023-01-31T14:24:48.462Z,22.38
2023-01-31T14:27:29.465Z,21.58
2023-01-31T14:30:05.307Z,22.60
2023-01-31T14:32:47.444Z,20.05
2023-01-31T14:35:13.958Z,22.30
2023-01-31T14:38:15.018Z,22.02
2023-01-31T14:41:03.035Z,22.65
2023-01-31T14:44:00.463Z,23.45
2023-01-31T14:46:30.032Z,23.75
2023-01-31T14:49:06.028Z,25.70
2023-01-31T14:51:56.419Z,26.23
2023-01-31T14:54:44.164Z,18.83
2023-01-31T14:57:21.896Z,19.48
2023-01-31T14:59:54.126Z,26.35
2023-01-31T15:02:30.745Z,24.70
2023-01-31T15:05:14.308Z,21.15
2023-01-31T15:08:09.094Z,23.33
2023-01-31T15:10:57.316Z,26.15
2023-01-31T15:13:44.022Z,26.30
2023-01-31T15:16:21.196Z,23.67
2023-01-31T15:19:17.441Z,20.35
2023-01-31T15:22:07.216Z,19.20
2023-01-31T15:24:39.459Z,26.17
2023-01-31T15:27:35.369Z,21.02
2023-01-31T15:32:40.474Z,24.35
2023-01-31T15:37:41.487Z,22.38
2023-01-31T15:40:18.998Z,20.08
2023-01-31T15:42:45.605Z,21.13
2023-01-31T15:45:14.343Z,22.90
2023-01-31T15:47:41.142Z,20.90
2023-01-31T15:50:17.292Z,22.75
2023-01-31T15:52:44.118Z,23.30
2023-01-31T15:55:14.782Z,24.05
2023-01-31T15:57:57.790Z,25.08
2023-01-31T16:00:35.642Z,23.15
2023-01-31T16:03:03.197Z,25.98
2023-01-31T16:05:34.902Z,21.75
2023-01-31T16:08:04.829Z,22.00
2023-01-31T16:10:32.251Z,23.10
2023-01-31T16:13:01.278Z,27.00
2023-01-31T16:15:31.919Z,23.35
2023-01-31T16:18:05.217Z,17.48
2023-01-31T16:20:47.122Z,21.20
2023-01-31T16:23:29.979Z,21.02
2023-01-31T16:25:59.630Z,20.35
2023-01-31T16:28:30.332Z,20.58
2023-01-31T16:31:17.548Z,17.15
2023-01-31T16:33:57.356Z,21.55
2023-01-31T16:36:34.058Z,20.30
2023-01-31T16:39:06.237Z,17.77
2023-01-31T16:41:45.351Z,17.98
2023-01-31T16:44:16.613Z,13.98
2023-01-31T16:46:45.903Z,12.68
2023-01-31T16:49:26.849Z,14.05
2023-01-31T16:52:17.182Z,16.00
2023-01-31T16:54:52.186Z,15.00
2023-01-31T16:57:39.204Z,14.45
2023-01-31T17:00:24.179Z,14.57
2023-01-31T17:02:56.453Z,16.25
2023-01-31T17:05:46.470Z,13.73
2023-01-31T17:08:18.833Z,15.10
2023-01-31T17:10:47.791Z,17.77
2023-01-31T17:13:21.147Z,16.13
2023-01-31T17:15:48.432Z,14.30
2023-01-31T17:18:15.376Z,17.65
2023-01-31T17:20:45.386Z,15.40
2023-01-31T17:23:12.604Z,13.07
2023-01-31T17:25:39.592Z,13.43
2023-01-31T17:28:06.998Z,13.63
2023-01-31T17:30:34.672Z,17.40
2023-01-31T17:33:01.542Z,10.35
2023-01-31T17:35:38.822Z,16.23
2023-01-31T17:38:06.068Z,12.68
2023-01-31T17:40:32.912Z,15.77
2023-01-31T17:43:03.766Z,14.70
2023-01-31T17:45:30.889Z,17.27
2023-01-31T17:47:57.775Z,15.27
2023-01-31T17:50:26.739Z,12.75
2023-01-31T17:52:54.003Z,12.43
2023-01-31T17:55:23.145Z,13.30
2023-01-31T17:57:49.999Z,14.45
2023-01-31T18:00:18.576Z,11.30
2023-01-31T18:02:45.305Z,11.30
2023-01-31T18:05:16.677Z,9.98
2023-01-31T18:07:45.255Z,10.65
2023-01-31T18:10:11.888Z,14.40
2023-01-31T18:12:38.524Z,15.98
2023-01-31T18:15:05.539Z,7.90
2023-01-31T18:17:32.504Z,9.82
2023-01-31T18:19:59.123Z,11.43
2023-01-31T18:22:25.798Z,11.85
2023-01-31T18:24:52.796Z,11.82
2023-01-31T18:27:19.408Z,12.85
2023-01-31T18:29:45.965Z,12.85
2023-01-31T18:32:12.543Z,8.98
2023-01-31T18:34:39.093Z,10.10
2023-01-31T18:37:10.338Z,6.30
2023-01-31T18:39:37.037Z,8.50
2023-01-31T18:42:03.673Z,8.13
2023-01-31T18:44:30.446Z,9.02
2023-01-31T18:46:57.311Z,7.18
2023-01-31T18:49:23.960Z,8.10
2023-01-31T18:51:50.623Z,10.90
2023-01-31T18:54:17.328Z,8.73
2023-01-31T18:56:44.661Z,8.40
2023-01-31T18:59:11.277Z,10.57
2023-01-31T19:01:41.046Z,9.80
2023-01-31T19:04:08.865Z,10.20
2023-01-31T19:06:37.805Z,7.00
2023-01-31T19:09:06.471Z,10.15
2023-01-31T19:11:33.505Z,7.50
2023-01-31T19:14:06.844Z,9.45
2023-01-31T19:16:37.711Z,6.18
2023-01-31T19:19:05.031Z,7.75
2023-01-31T19:21:33.713Z,7.05
2023-01-31T19:24:03.145Z,6.57
2023-01-31T19:26:32.275Z,7.60
2023-01-31T19:29:00.011Z,7.25
2023-01-31T19:31:31.051Z,5.13
2023-01-31T19:34:00.746Z,8.35
2023-01-31T19:36:30.800Z,5.95
2023-01-31T19:38:58.471Z,4.70
2023-01-31T19:41:26.573Z,6.30
2023-01-31T19:43:55.649Z,6.13
2023-01-31T19:46:23.814Z,5.82
2023-01-31T19:48:50.394Z,5.60
2023-01-31T19:51:19.803Z,5.68
2023-01-31T19:53:47.774Z,6.32
2023-01-31T19:56:14.982Z,4.53
2023-01-31T19:58:42.029Z,5.32
2023-01-31T20:01:11.750Z,5.15
2023-01-31T20:03:38.776Z,5.78
2023-01-31T20:06:10.151Z,6.00
2023-01-31T20:08:37.663Z,4.50
2023-01-31T20:11:08.589Z,4.60
2023-01-31T20:13:35.800Z,4.78
2023-01-31T20:16:06.654Z,3.97
2023-01-31T20:18:34.440Z,5.05
2023-01-31T20:21:01.100Z,4.38
2023-01-31T20:23:29.074Z,4.03
2023-01-31T20:25:56.591Z,5.45
2023-01-31T20:28:24.313Z,4.13
2023-01-31T20:30:51.966Z,3.45
2023-01-31T20:33:19.460Z,3.92
2023-01-31T20:35:46.597Z,4.60
2023-01-31T20:38:15.355Z,3.80
2023-01-31T20:40:41.959Z,3.78
2023-01-31T20:43:08.663Z,2.63
2023-01-31T20:45:35.237Z,2.75
2023-01-31T20:48:01.852Z,3.65
2023-01-31T20:50:28.578Z,2.92
2023-01-31T20:52:56.203Z,4.18
2023-01-31T20:55:23.684Z,3.92
2023-01-31T20:57:51.123Z,3.92
2023-01-31T21:00:22.316Z,3.75
2023-01-31T21:02:49.505Z,3.28
2023-01-31T21:05:17.819Z,4.43
2023-01-31T21:07:45.041Z,5.28
2023-01-31T21:10:12.875Z,3.25
2023-01-31T21:12:39.624Z,4.05
2023-01-31T21:15:06.991Z,3.75
2023-01-31T21:17:39.988Z,4.72
2023-01-31T21:20:08.171Z,4.85
2023-01-31T21:22:35.003Z,4.60
2023-01-31T21:25:01.906Z,6.93
2023-01-31T21:27:28.535Z,8.57
2023-01-31T21:29:55.196Z,7.85
2023-01-31T21:32:22.019Z,5.28
2023-01-31T21:34:48.759Z,6.50
2023-01-31T21:37:15.349Z,5.32
2023-01-31T21:39:41.879Z,4.22
2023-01-31T21:42:16.279Z,3.55
2023-01-31T21:44:43.965Z,3.00
2023-01-31T21:47:11.005Z,3.38
2023-01-31T21:49:37.709Z,3.17
2023-01-31T21:52:05.532Z,3.38
2023-01-31T21:54:32.401Z,3.67
2023-01-31T21:56:59.025Z,3.58
2023-01-31T21:59:26.037Z,5.00
2023-01-31T22:01:52.726Z,5.05
2023-01-31T22:04:23.384Z,4.35
2023-01-31T22:06:51.006Z,3.88
2023-01-31T22:09:18.222Z,4.05
2023-01-31T22:11:47.467Z,4.55
2023-01-31T22:14:15.850Z,3.97
2023-01-31T22:16:43.167Z,3.78
2023-01-31T22:19:13.753Z,4.78
2023-01-31T22:21:41.696Z,5.03
2023-01-31T22:24:11.372Z,6.45
2023-01-31T22:26:43.902Z,4.40
2023-01-31T22:29:13.408Z,3.90
2023-01-31T22:31:40.501Z,4.00
2023-01-31T22:34:08.665Z,3.80
2023-01-31T22:36:35.290Z,3.85
2023-01-31T22:39:02.441Z,3.20
2023-01-31T22:41:29.430Z,3.83
2023-01-31T22:43:56.241Z,4.72
2023-01-31T22:46:28.182Z,4.80
2023-01-31T22:48:55.873Z,3.45
2023-01-31T22:51:25.861Z,2.83
2023-01-31T22:53:53.986Z,3.28
2023-01-31T22:56:23.768Z,5.18
2023-01-31T22:59:04.493Z,3.92
2023-01-31T23:01:34.935Z,4.53
2023-01-31T23:04:03.454Z,3.60
2023-01-31T23:06:30.126Z,3.78
2023-01-31T23:08:57.083Z,3.90
2023-01-31T23:11:24.406Z,4.25
2023-01-31T23:13:51.329Z,3.30
2023-01-31T23:16:20.853Z,3.65
2023-01-31T23:18:47.657Z,3.78
2023-01-31T23:21:18.599Z,3.17
2023-01-31T23:23:45.726Z,3.15
2023-01-31T23:26:13.005Z,4.10
2023-01-31T23:28:40.058Z,3.47
2023-01-31T23:31:06.893Z,3.30
2023-01-31T23:33:34.058Z,4.93
2023-01-31T23:36:00.607Z,4.43
2023-01-31T23:38:27.201Z,4.07
2023-01-31T23:40:54.305Z,4.45
2023-01-31T23:43:22.249Z,5.00
2023-01-31T23:45:49.228Z,4.43
2023-01-31T23:48:16.106Z,5.25
2023-01-31T23:50:43.011Z,5.28
2023-01-31T23:53:09.838Z,5.65
2023-01-31T23:55:37.044Z,5.55
2023-01-31T23:58:03.967Z,5.38
